Time;durP1;ratioP1;P1;durP2;ratioP2;P2;SDS_P1;SDS_P2;PMS_P1;PMS_P2;Temp;Humidity;BMP_temperature;BMP_pressure;BME280_temperature;BME280_humidity;BME280_pressure;Samples;Min_cycle;Max_cycle;Signal;HPM_P1;HPM_P2
2021/04/07 00:02:25;;;;;;;3.50;1.70;;;1.50;93.20;;;2.18;88.74;97763.38;5048917;28;20464;-80
2021/04/07 00:05:00;;;;;;;1.87;1.53;;;1.40;93.20;;;2.09;88.46;97753.88;5050046;28;20939;-80
2021/04/07 00:07:27;;;;;;;3.93;1.53;;;1.50;93.20;;;2.18;88.40;97769.34;5047705;28;20522;-80
2021/04/07 00:09:55;;;;;;;5.97;1.90;;;1.60;93.60;;;2.12;88.64;97769.91;5041916;28;20458;-81
2021/04/07 00:12:22;;;;;;;1.83;1.40;;;1.50;93.00;;;2.18;88.68;97778.84;5049329;28;20506;-80
2021/04/07 00:14:50;;;;;;;2.33;1.50;;;1.50;93.30;;;2.07;87.33;97777.25;5051958;28;20864;-81
2021/04/07 00:17:18;;;;;;;2.80;1.53;;;1.50;92.70;;;2.09;87.83;97780.50;5046852;28;20456;-80
2021/04/07 00:19:46;;;;;;;2.13;1.40;;;1.40;93.00;;;2.10;87.20;97789.88;5049330;28;20464;-80
2021/04/07 00:22:13;;;;;;;1.73;1.20;;;1.50;92.80;;;2.13;86.11;97779.25;5048907;28;20457;-80
2021/04/07 00:24:45;;;;;;;2.00;1.60;;;1.40;92.90;;;2.09;86.23;97783.06;5051348;28;20456;-81
2021/04/07 00:27:14;;;;;;;3.63;1.60;;;1.40;92.70;;;2.13;86.58;97781.84;5048489;28;20973;-80
2021/04/07 00:29:41;;;;;;;3.13;1.47;;;1.40;92.70;;;2.13;86.00;97799.91;5048734;28;20471;-80
2021/04/07 00:32:09;;;;;;;2.60;1.40;;;1.50;92.50;;;2.11;85.40;97788.91;5047666;28;20460;-80
2021/04/07 00:34:37;;;;;;;6.07;1.43;;;1.50;92.60;;;2.07;85.21;97797.88;5047923;28;20532;-80
2021/04/07 00:37:05;;;;;;;1.47;1.33;;;1.40;92.50;;;2.08;85.47;97799.53;5041035;28;20469;-80
2021/04/07 00:39:32;;;;;;;1.40;1.30;;;1.40;92.60;;;2.12;85.27;97794.91;5047110;28;20459;-80
2021/04/07 00:42:05;;;;;;;2.33;1.40;;;1.40;92.60;;;2.10;85.53;97797.59;5043098;28;20492;-80
2021/04/07 00:44:34;;;;;;;2.40;1.67;;;1.40;92.50;;;2.00;86.77;97797.63;5048841;28;20835;-80
2021/04/07 00:47:01;;;;;;;2.60;1.83;;;1.30;93.00;;;1.95;86.27;97802.38;5048092;28;20460;-80
2021/04/07 00:49:29;;;;;;;1.33;1.23;;;1.30;92.60;;;1.94;86.68;97808.47;5046480;28;20457;-80
2021/04/07 00:51:58;;;;;;;2.07;1.43;;;1.30;93.00;;;2.02;87.42;97815.53;5050560;28;20550;-80
2021/04/07 00:54:25;;;;;;;4.53;1.80;;;1.30;93.30;;;2.03;86.98;97812.81;5052599;28;20538;-80
2021/04/07 00:56:54;;;;;;;1.67;1.57;;;1.30;93.00;;;2.04;87.60;97816.22;5051785;28;20453;-80
2021/04/07 00:59:23;;;;;;;5.37;1.90;;;1.40;93.40;;;1.99;88.08;97811.47;5052459;28;20448;-80
2021/04/07 01:01:50;;;;;;;3.10;2.07;;;1.30;93.30;;;2.06;88.17;97816.88;5050078;28;21090;-80
2021/04/07 01:04:21;;;;;;;4.10;1.70;;;1.40;93.50;;;2.09;88.47;97821.75;5046296;28;20462;-80
2021/04/07 01:06:49;;;;;;;3.60;1.80;;;1.40;93.70;;;2.08;88.98;97815.00;5043182;28;20445;-81
2021/04/07 01:09:18;;;;;;;3.53;1.70;;;1.40;93.60;;;2.04;89.30;97818.78;5048811;28;20570;-80
2021/04/07 01:11:46;;;;;;;7.10;1.67;;;1.30;93.60;;;2.06;87.91;97821.22;5053098;28;20457;-80
2021/04/07 01:14:13;;;;;;;2.70;1.80;;;1.40;93.20;;;2.07;88.47;97817.69;5045335;28;20494;-80
2021/04/07 01:16:42;;;;;;;3.30;1.70;;;1.50;93.20;;;2.07;88.28;97823.66;5047545;28;20765;-80
2021/04/07 01:19:11;;;;;;;3.07;1.80;;;1.50;93.20;;;2.04;88.48;97826.53;5046360;28;20544;-80
2021/04/07 01:21:43;;;;;;;2.83;1.47;;;1.40;93.20;;;2.04;87.79;97818.78;5051528;28;20852;-80
2021/04/07 01:24:12;;;;;;;4.20;1.50;;;1.30;93.00;;;2.06;87.13;97831.53;5051928;28;20464;-80
2021/04/07 01:26:39;;;;;;;1.30;1.20;;;1.40;92.80;;;2.07;85.94;97833.97;5053412;28;20503;-80
2021/04/07 01:29:07;;;;;;;2.30;1.40;;;1.40;92.50;;;2.03;85.18;97838.59;5052700;28;20494;-80
2021/04/07 01:31:45;;;;;;;1.60;1.50;;;1.30;92.40;;;1.98;84.80;97827.06;5049598;28;20499;-80
2021/04/07 01:34:23;;;;;;;2.30;1.40;;;1.20;92.50;;;2.00;85.72;97830.34;5047452;28;21016;-80
2021/04/07 01:36:52;;;;;;;4.40;1.70;;;1.30;92.60;;;2.03;85.99;97827.47;5050810;28;20456;-81
2021/04/07 01:39:23;;;;;;;5.03;1.20;;;1.30;92.70;;;2.01;83.81;97837.91;5052667;28;20951;-80
2021/04/07 01:41:51;;;;;;;3.63;1.40;;;1.40;91.80;;;1.95;83.02;97842.81;5054883;28;20541;-80
2021/04/07 01:44:22;;;;;;;4.20;1.73;;;1.40;91.60;;;1.94;82.38;97843.78;5049681;28;20480;-80
2021/04/07 01:46:51;;;;;;;3.30;1.30;;;1.30;91.60;;;1.93;82.18;97849.88;5057025;28;20465;-81
2021/04/07 01:49:20;;;;;;;13.20;1.80;;;1.30;91.50;;;1.96;81.92;97847.84;5048974;28;20493;-80
2021/04/07 01:51:47;;;;;;;2.60;1.40;;;1.30;91.60;;;1.85;82.22;97844.59;5047904;28;20480;-80
2021/04/07 01:54:16;;;;;;;3.97;1.87;;;1.20;91.50;;;1.92;82.42;97843.09;5048536;28;20884;-80
2021/04/07 01:56:50;;;;;;;4.67;1.60;;;1.30;91.70;;;1.80;82.05;97849.34;5046718;28;20453;-81
2021/04/07 01:59:20;;;;;;;9.80;1.40;;;1.10;91.40;;;1.85;82.13;97847.16;5050526;28;20545;-80
2021/04/07 02:01:51;;;;;;;2.50;1.30;;;1.30;91.80;;;1.80;81.63;97852.75;5052833;28;20534;-80
2021/04/07 02:04:20;;;;;;;2.60;1.40;;;1.20;91.40;;;1.78;81.77;97849.47;5048346;28;20457;-80
2021/04/07 02:06:56;;;;;;;2.93;1.47;;;1.30;91.40;;;1.75;81.84;97848.94;5052513;28;20835;-80
2021/04/07 02:09:25;;;;;;;3.27;1.30;;;1.20;91.40;;;1.69;81.59;97850.31;5050342;28;20507;-80
2021/04/07 02:11:54;;;;;;;1.90;1.37;;;1.10;91.60;;;1.78;81.87;97856.41;5054042;28;20468;-80
2021/04/07 02:14:24;;;;;;;3.57;1.60;;;1.10;91.40;;;1.74;81.90;97863.59;5050391;28;20500;-80
2021/04/07 02:16:54;;;;;;;1.67;1.30;;;1.10;91.50;;;1.66;82.45;97860.91;5050883;28;20472;-80
2021/04/07 02:19:22;;;;;;;1.40;1.20;;;1.00;91.70;;;1.60;81.07;97860.63;5049874;28;20863;-80
2021/04/07 02:22:02;;;;;;;5.47;1.47;;;1.00;91.40;;;1.56;82.43;97874.72;5054105;28;20518;-80
2021/04/07 02:24:30;;;;;;;2.57;1.50;;;0.90;91.70;;;1.54;81.74;97872.28;5049151;28;20468;-80
2021/04/07 02:27:02;;;;;;;4.00;1.40;;;1.00;91.50;;;1.58;81.83;97880.53;5049104;28;20460;-80
2021/04/07 02:29:30;;;;;;;2.50;1.43;;;0.90;91.50;;;1.55;81.79;97879.06;5048545;28;20975;-80
2021/04/07 02:31:57;;;;;;;3.03;1.10;;;0.90;91.50;;;1.58;81.68;97872.81;5047587;28;20453;-80
2021/04/07 02:34:25;;;;;;;2.27;1.20;;;0.90;91.50;;;1.57;81.76;97872.00;5047679;28;20488;-80
2021/04/07 02:36:52;;;;;;;3.57;1.13;;;0.90;91.40;;;1.52;81.88;97874.19;5053254;28;20816;-80
2021/04/07 02:39:20;;;;;;;3.83;1.57;;;0.80;91.60;;;1.46;82.48;97882.44;5052173;28;20457;-80
2021/04/07 02:41:47;;;;;;;3.13;1.40;;;0.70;91.70;;;1.55;81.74;97888.53;5052667;28;20484;-80
2021/04/07 02:44:16;;;;;;;3.00;1.10;;;1.00;91.70;;;1.56;81.78;97882.47;5049867;28;20848;-80
2021/04/07 02:46:43;;;;;;;3.87;1.30;;;0.90;91.70;;;1.49;82.50;97890.69;5048605;28;20480;-80
2021/04/07 02:49:11;;;;;;;5.63;1.80;;;0.90;92.00;;;1.45;83.07;97894.50;5051399;28;20986;-79
2021/04/07 02:51:39;;;;;;;6.37;1.70;;;0.90;91.90;;;1.42;83.22;97893.97;5055631;28;20948;-80
2021/04/07 02:54:06;;;;;;;3.30;1.40;;;0.80;91.90;;;1.38;84.10;97892.59;5052570;28;20526;-79
2021/04/07 02:56:34;;;;;;;2.90;1.50;;;0.70;92.30;;;1.40;84.58;97895.84;5046400;28;20946;-80
2021/04/07 02:59:03;;;;;;;2.07;1.50;;;0.70;92.50;;;1.39;85.27;97902.75;5046949;28;20446;-80
2021/04/07 03:01:31;;;;;;;1.50;1.40;;;0.70;92.60;;;1.45;85.08;97904.81;5046037;28;20467;-80
2021/04/07 03:03:59;;;;;;;4.73;1.70;;;0.80;92.50;;;1.43;85.35;97911.84;5050030;28;20874;-80
2021/04/07 03:06:26;;;;;;;7.10;2.13;;;0.80;92.90;;;1.38;85.42;97908.06;5048389;28;20469;-80
2021/04/07 03:08:54;;;;;;;3.47;1.43;;;0.80;92.50;;;1.36;86.17;97909.94;5046229;28;20467;-80
2021/04/07 03:11:22;;;;;;;3.33;1.60;;;0.70;92.50;;;1.39;85.87;97905.31;5046208;28;20468;-79
2021/04/07 03:13:49;;;;;;;2.90;1.73;;;0.80;92.70;;;1.39;86.32;97897.59;5047823;28;20570;-80
2021/04/07 03:16:17;;;;;;;3.97;1.53;;;0.80;92.50;;;1.42;85.76;97905.06;5046262;28;21178;-79
2021/04/07 03:18:46;;;;;;;2.60;1.60;;;0.80;92.60;;;1.39;86.49;97904.50;5047365;28;20520;-80
2021/04/07 03:21:13;;;;;;;3.60;1.50;;;0.80;92.60;;;1.39;86.72;97907.91;5052082;28;20463;-79
2021/04/07 03:23:41;;;;;;;2.30;1.43;;;0.70;92.70;;;1.39;86.34;97895.03;5053745;28;20452;-80
2021/04/07 03:26:08;;;;;;;6.30;1.37;;;0.80;92.60;;;1.33;86.42;97905.88;5053095;28;20464;-79
2021/04/07 03:28:36;;;;;;;4.13;1.67;;;0.70;92.60;;;1.35;86.71;97903.19;5046542;28;20473;-80
2021/04/07 03:31:04;;;;;;;6.70;1.90;;;0.80;92.60;;;1.36;86.18;97905.59;5043636;28;20477;-80
2021/04/07 03:33:35;;;;;;;5.53;2.27;;;0.70;92.80;;;1.25;87.02;97905.72;5046811;28;20494;-80
2021/04/07 03:36:06;;;;;;;1.77;1.60;;;0.60;92.80;;;1.22;87.94;97902.59;5045847;28;20461;-80
2021/04/07 03:38:34;;;;;;;1.77;1.67;;;0.50;92.90;;;1.23;86.95;97907.63;5045196;28;20452;-80
2021/04/07 03:41:04;;;;;;;3.47;1.60;;;0.60;92.80;;;1.10;86.88;97904.47;5046229;28;20492;-82
2021/04/07 03:43:31;;;;;;;10.03;3.83;;;0.40;92.50;;;1.10;86.70;97899.31;5051121;28;20480;-80
2021/04/07 03:46:00;;;;;;;3.00;1.93;;;0.50;92.70;;;1.12;87.58;97909.47;5049115;28;20490;-80
2021/04/07 03:48:31;;;;;;;4.60;1.57;;;0.50;92.70;;;1.17;87.47;97909.91;5047473;28;21004;-81
2021/04/07 03:51:00;;;;;;;2.60;1.43;;;0.50;92.90;;;1.16;86.46;97905.69;5047811;28;20449;-81
2021/04/07 03:53:29;;;;;;;2.10;1.40;;;0.60;92.60;;;1.10;86.87;97912.19;5053689;28;20708;-81
2021/04/07 03:55:57;;;;;;;9.40;2.37;;;0.50;92.40;;;1.06;86.98;97912.56;5044756;28;20457;-80
2021/04/07 03:58:26;;;;;;;2.23;1.13;;;0.40;92.50;;;1.07;86.50;97914.22;5040663;28;20464;-79
2021/04/07 04:00:54;;;;;;;2.90;1.87;;;0.50;92.50;;;1.14;87.11;97911.00;5055493;28;20478;-80
2021/04/07 04:03:22;;;;;;;3.73;1.67;;;0.50;92.70;;;1.17;86.48;97915.88;5042462;28;20861;-81
2021/04/07 04:05:50;;;;;;;4.10;1.60;;;0.60;92.80;;;1.14;86.84;97913.56;5053406;28;20812;-80
2021/04/07 04:08:18;;;;;;;1.83;1.57;;;0.50;92.60;;;1.13;86.71;97919.66;5046240;28;20441;-80
2021/04/07 04:10:46;;;;;;;3.07;1.50;;;0.60;92.70;;;1.15;87.57;97922.06;5045156;28;20800;-80
2021/04/07 04:13:14;;;;;;;3.37;1.40;;;0.50;92.80;;;1.13;87.78;97918.84;5037058;28;21071;-80
2021/04/07 04:15:42;;;;;;;2.47;1.80;;;0.40;92.70;;;1.12;87.09;97930.88;5053569;28;20460;-80
2021/04/07 04:18:10;;;;;;;2.17;1.70;;;0.50;92.90;;;1.15;87.35;97934.94;5050669;28;20442;-80
2021/04/07 04:20:37;;;;;;;2.13;1.43;;;0.40;92.90;;;1.14;87.70;97935.91;5053691;28;20457;-80
2021/04/07 04:23:06;;;;;;;3.87;1.70;;;0.50;92.90;;;1.09;87.86;97944.03;5050140;28;20458;-80
2021/04/07 04:25:33;;;;;;;3.00;1.20;;;0.40;92.70;;;1.07;87.69;97948.50;5047203;28;20451;-80
2021/04/07 04:28:02;;;;;;;3.50;1.77;;;0.50;92.70;;;1.04;87.71;97953.09;5051230;28;20475;-80
2021/04/07 04:30:31;;;;;;;4.23;1.60;;;0.40;92.80;;;1.05;86.81;97952.94;5051934;28;20529;-89
2021/04/07 04:32:59;;;;;;;3.67;2.00;;;0.40;92.60;;;1.05;87.45;97942.66;5038773;28;20874;-80
2021/04/07 04:35:27;;;;;;;1.70;1.60;;;0.50;92.80;;;1.06;86.95;97958.91;5049540;28;20501;-80
2021/04/07 04:37:54;;;;;;;3.50;1.60;;;0.40;92.70;;;1.08;87.15;97957.81;5046444;28;20527;-80
2021/04/07 04:40:22;;;;;;;2.40;1.50;;;0.50;92.90;;;1.07;87.22;97960.56;5050654;28;20448;-80
2021/04/07 04:42:50;;;;;;;1.93;1.60;;;0.40;92.80;;;1.04;87.69;97965.97;5048591;28;20453;-80
2021/04/07 04:45:18;;;;;;;3.00;1.67;;;0.40;92.80;;;1.02;87.79;97969.47;5054821;28;20445;-80
2021/04/07 04:47:46;;;;;;;1.90;1.70;;;0.40;92.90;;;1.07;87.76;97966.53;5049313;28;20510;-80
2021/04/07 04:50:14;;;;;;;36.13;15.90;;;0.50;93.10;;;1.07;88.20;97966.53;5058342;28;20465;-82
2021/04/07 04:52:42;;;;;;;9.50;2.30;;;0.50;93.00;;;1.07;88.60;97976.81;5050120;28;20476;-79
2021/04/07 04:55:11;;;;;;;4.37;1.70;;;0.40;93.10;;;1.10;88.66;97978.31;5054384;28;20551;-79
2021/04/07 04:57:39;;;;;;;2.27;1.50;;;0.40;93.20;;;1.08;88.98;97986.16;5051533;28;20971;-80
2021/04/07 05:00:08;;;;;;;4.30;2.17;;;0.60;93.20;;;1.02;88.95;97989.25;5051112;28;20442;-80
2021/04/07 05:02:37;;;;;;;2.20;1.73;;;0.40;93.20;;;1.08;88.88;97993.88;5051027;28;20449;-80
2021/04/07 05:05:06;;;;;;;2.80;1.77;;;0.40;93.30;;;1.04;89.39;97991.72;5052441;28;20415;-80
2021/04/07 05:07:33;;;;;;;4.87;2.07;;;0.40;93.20;;;1.03;89.62;97993.47;5045361;28;20445;-80
2021/04/07 05:10:01;;;;;;;2.00;1.13;;;0.50;93.40;;;0.96;90.57;97992.34;5045620;28;20461;-80
2021/04/07 05:12:28;;;;;;;7.93;1.30;;;0.40;93.30;;;0.90;91.45;97998.00;5052551;28;20786;-80
2021/04/07 05:14:57;;;;;;;3.27;1.73;;;0.30;93.70;;;0.94;91.06;97999.34;5044907;28;20858;-80
2021/04/07 05:17:24;;;;;;;4.70;1.73;;;0.40;93.80;;;0.98;91.58;98014.44;5046679;28;20425;-80
2021/04/07 05:19:53;;;;;;;2.60;1.67;;;0.40;93.60;;;1.02;91.56;98012.41;5039209;28;20438;-80
2021/04/07 05:22:21;;;;;;;2.63;1.93;;;0.40;93.90;;;1.05;91.24;98011.34;5049410;28;20948;-80
2021/04/07 05:24:48;;;;;;;2.10;1.40;;;0.40;93.80;;;0.99;92.01;98010.91;5045969;28;20937;-80
2021/04/07 05:27:16;;;;;;;2.47;1.70;;;0.40;93.80;;;1.04;91.24;98013.13;5052890;28;20956;-79
2021/04/07 05:29:44;;;;;;;1.80;1.60;;;0.40;93.70;;;1.07;91.87;98018.00;5054662;28;20449;-80
2021/04/07 05:32:11;;;;;;;2.17;1.40;;;0.50;93.90;;;1.02;92.04;98043.31;5055090;28;20443;-80
2021/04/07 05:34:39;;;;;;;5.70;2.00;;;0.40;93.70;;;1.05;91.88;98037.91;5054100;28;20489;-80
2021/04/07 05:37:07;;;;;;;4.20;2.10;;;0.40;93.80;;;1.08;91.90;98040.22;5052365;28;21262;-80
2021/04/07 05:39:36;;;;;;;9.73;2.50;;;0.50;93.80;;;1.12;91.83;98039.00;5062585;28;20448;-80
2021/04/07 05:42:05;;;;;;;6.20;1.80;;;0.50;93.80;;;1.19;91.48;98039.31;5057463;28;20492;-80
2021/04/07 05:44:33;;;;;;;2.30;1.60;;;0.60;93.80;;;1.20;91.25;98043.53;5053107;28;20484;-80
2021/04/07 05:47:00;;;;;;;3.40;2.00;;;0.50;93.80;;;1.20;91.46;98049.50;5053206;28;20461;-79
2021/04/07 05:49:29;;;;;;;1.97;1.60;;;0.60;93.70;;;1.26;91.22;98043.00;5049178;28;20969;-79
2021/04/07 05:51:56;;;;;;;4.10;1.83;;;0.60;93.90;;;1.31;91.39;98049.41;5042385;28;20453;-79
2021/04/07 05:54:25;;;;;;;1.70;1.60;;;0.70;93.80;;;1.31;91.03;98046.84;5048657;28;20538;-79
2021/04/07 05:56:52;;;;;;;2.83;1.97;;;0.70;93.40;;;1.38;91.24;98049.72;5053632;28;20915;-79
2021/04/07 05:59:20;;;;;;;4.20;2.20;;;0.80;93.70;;;1.41;90.93;98041.72;5045258;28;20840;-79
2021/04/07 06:01:47;;;;;;;3.33;1.93;;;0.80;93.50;;;1.41;90.62;98046.88;5050330;28;20449;-78
2021/04/07 06:04:15;;;;;;;112.50;40.97;;;0.80;93.70;;;1.46;90.65;98049.88;5057363;28;20444;-85
2021/04/07 06:06:43;;;;;;;4.87;2.33;;;0.90;93.70;;;1.42;91.14;98053.66;5051818;28;20481;-78
2021/04/07 06:09:11;;;;;;;5.93;1.63;;;0.80;93.70;;;1.47;91.39;98067.78;5054583;28;20494;-78
2021/04/07 06:11:39;;;;;;;2.70;1.70;;;0.90;93.90;;;1.45;91.41;98063.72;5058049;28;20929;-78
2021/04/07 06:14:07;;;;;;;5.13;2.37;;;0.80;93.90;;;1.45;91.98;98076.59;5057369;28;20992;-79
2021/04/07 06:16:35;;;;;;;3.33;1.80;;;0.80;94.10;;;1.48;92.17;98072.00;5057900;28;20437;-78
2021/04/07 06:19:03;;;;;;;4.57;2.07;;;0.90;94.20;;;1.47;92.80;98078.09;5058226;28;20463;-78
2021/04/07 06:21:31;;;;;;;6.47;1.93;;;1.00;94.30;;;1.50;92.93;98075.25;5061549;28;20810;-79
2021/04/07 06:23:59;;;;;;;3.47;2.40;;;0.90;94.30;;;1.60;92.13;98064.19;5057620;28;20448;-78
2021/04/07 06:26:26;;;;;;;5.17;2.27;;;0.90;94.20;;;1.62;92.93;98070.00;5057201;28;20927;-79
2021/04/07 06:28:57;;;;;;;5.20;2.23;;;1.00;94.40;;;1.61;92.72;98073.50;5058714;28;20473;-79
2021/04/07 06:31:24;;;;;;;3.53;2.37;;;1.00;94.30;;;1.61;93.54;98076.09;5050816;28;20456;-79
2021/04/07 06:33:52;;;;;;;2.00;1.77;;;0.90;94.50;;;1.68;92.74;98074.63;5059764;28;20469;-79
2021/04/07 06:36:19;;;;;;;5.77;2.80;;;1.00;94.40;;;1.74;92.99;98079.25;5056953;28;20440;-79
2021/04/07 06:38:47;;;;;;;2.30;2.10;;;1.10;94.50;;;1.75;93.46;98073.16;5064749;28;20444;-79
2021/04/07 06:41:15;;;;;;;11.07;2.03;;;1.10;94.60;;;1.75;94.44;98083.47;5044970;28;20476;-79
2021/04/07 06:43:44;;;;;;;8.13;2.00;;;1.10;94.90;;;1.75;95.09;98088.63;5054298;28;20474;-78
2021/04/07 06:46:13;;;;;;;3.43;2.00;;;1.10;94.80;;;1.69;95.27;98087.41;5051888;28;20996;-79
2021/04/07 06:48:43;;;;;;;4.87;2.03;;;1.10;94.90;;;1.66;96.12;98092.00;5052017;28;20488;-78
2021/04/07 06:51:11;;;;;;;4.50;2.00;;;1.00;95.00;;;1.75;95.59;98083.47;5055879;28;20441;-78
2021/04/07 06:53:42;;;;;;;4.60;1.93;;;1.10;94.90;;;1.69;95.12;98086.56;5047609;28;20525;-79
2021/04/07 06:56:11;;;;;;;4.40;1.97;;;1.00;94.60;;;1.70;95.86;98078.69;5058696;28;20441;-79
2021/04/07 06:58:39;;;;;;;5.80;2.20;;;1.10;95.00;;;1.70;95.22;98101.09;5053781;28;20963;-78
2021/04/07 07:01:07;;;;;;;7.53;2.37;;;1.10;94.60;;;1.83;94.70;98099.91;5060037;28;20448;-79
2021/04/07 07:03:35;;;;;;;4.23;2.10;;;1.20;94.80;;;1.89;94.06;98093.41;5053977;28;20949;-79
2021/04/07 07:06:04;;;;;;;11.63;1.90;;;1.30;94.60;;;1.94;93.56;98092.06;5055591;28;20816;-78
2021/04/07 07:08:44;;;;;;;5.70;2.10;;;1.30;94.40;;;1.96;93.29;98094.53;5053594;28;20489;-79
2021/04/07 07:11:16;;;;;;;3.43;1.53;;;1.30;94.20;;;1.98;92.30;98093.44;5057752;28;20444;-79
2021/04/07 07:13:45;;;;;;;8.73;2.10;;;1.30;94.10;;;1.98;91.89;98100.34;5052321;28;20449;-79
2021/04/07 07:16:25;;;;;;;5.27;2.40;;;1.30;94.10;;;2.07;92.43;98107.31;5052320;28;20446;-79
2021/04/07 07:18:53;;;;;;;3.70;1.90;;;1.50;94.20;;;2.06;92.43;98117.75;5057955;28;20819;-79
2021/04/07 07:21:21;;;;;;;8.43;2.80;;;1.40;94.20;;;2.07;92.97;98104.72;5049252;28;20445;-78
2021/04/07 07:23:50;;;;;;;3.87;2.03;;;1.40;94.30;;;2.15;93.06;98104.06;5052862;28;20523;-79
2021/04/07 07:26:20;;;;;;;6.83;1.93;;;1.60;94.40;;;2.17;92.14;98105.56;5052003;28;20468;-79
2021/04/07 07:28:53;;;;;;;7.80;2.00;;;1.60;94.40;;;2.21;91.36;98109.50;5056482;28;20440;-79
2021/04/07 07:31:24;;;;;;;4.57;2.33;;;1.70;94.20;;;2.27;91.62;98111.56;5051366;28;20459;-79
2021/04/07 07:33:55;;;;;;;4.10;2.07;;;1.70;94.30;;;2.36;91.49;98126.22;5055295;28;20491;-79
2021/04/07 07:36:24;;;;;;;7.83;2.37;;;1.80;94.20;;;2.42;91.44;98137.78;5056812;28;20492;-79
2021/04/07 07:38:54;;;;;;;6.43;2.13;;;1.70;93.80;;;2.39;89.96;98132.91;5052846;28;20448;-79
2021/04/07 07:41:25;;;;;;;3.30;1.93;;;1.80;93.70;;;2.43;90.19;98131.69;5051767;28;20488;-79
2021/04/07 07:44:12;;;;;;;2.80;2.17;;;1.80;93.80;;;2.35;88.56;98140.09;5047978;28;20512;-79
2021/04/07 07:46:40;;;;;;;3.30;2.30;;;1.70;93.20;;;2.44;88.82;98134.13;5050996;28;20430;-79
2021/04/07 07:49:15;;;;;;;10.90;2.20;;;1.80;93.50;;;2.42;87.88;98143.75;5048159;28;20524;-79
2021/04/07 07:51:47;;;;;;;2.60;1.40;;;1.80;93.10;;;2.42;87.29;98148.09;5048215;28;20444;-79
2021/04/07 07:54:17;;;;;;;10.67;2.40;;;1.80;93.10;;;2.50;87.48;98146.47;5054969;28;20492;-79
2021/04/07 07:56:45;;;;;;;3.90;2.03;;;1.90;93.20;;;2.58;87.56;98145.00;5053654;28;20441;-79
2021/04/07 07:59:25;;;;;;;5.97;1.93;;;2.00;93.20;;;2.59;87.39;98137.13;5057098;28;20483;-79
2021/04/07 08:01:53;;;;;;;10.20;3.80;;;2.00;93.00;;;2.56;85.90;98149.47;5049540;28;20433;-79
2021/04/07 08:04:22;;;;;;;10.60;2.50;;;2.00;92.70;;;2.55;87.10;98140.91;5050629;28;20440;-79
2021/04/07 08:06:49;;;;;;;10.13;2.00;;;1.90;93.60;;;2.60;86.64;98141.34;5047603;28;20450;-79
2021/04/07 08:09:17;;;;;;;8.10;1.90;;;2.00;93.20;;;2.65;86.68;98138.34;5057076;28;20818;-79
2021/04/07 08:11:47;;;;;;;6.63;1.90;;;2.00;93.10;;;2.71;86.46;98143.78;5048801;28;20438;-79
2021/04/07 08:14:17;;;;;;;7.20;2.37;;;2.10;93.00;;;2.68;86.15;98150.97;5056978;28;20494;-79
2021/04/07 08:16:47;;;;;;;3.63;1.73;;;2.00;92.80;;;2.69;86.50;98148.25;5053060;28;20942;-79
2021/04/07 08:19:16;;;;;;;4.77;2.53;;;2.00;93.10;;;2.62;85.37;98161.84;5054862;28;20520;-79
2021/04/07 08:21:46;;;;;;;2.20;1.60;;;2.00;92.70;;;2.66;86.84;98165.78;5051023;28;20458;-79
2021/04/07 08:24:15;;;;;;;4.20;1.73;;;2.00;93.20;;;2.66;86.05;98163.22;5054269;28;20453;-79
2021/04/07 08:26:45;;;;;;;8.87;2.17;;;2.00;93.00;;;2.73;87.08;98166.88;5059498;28;20441;-79
2021/04/07 08:29:13;;;;;;;5.03;2.10;;;2.00;93.40;;;2.77;86.60;98152.75;5056356;28;20445;-79
2021/04/07 08:31:48;;;;;;;6.07;2.40;;;2.10;93.40;;;2.83;86.87;98149.63;5055583;28;20463;-79
2021/04/07 08:34:18;;;;;;;8.60;2.53;;;2.20;93.30;;;2.85;86.34;98165.78;5052113;28;20483;-79
2021/04/07 08:36:48;;;;;;;5.00;2.03;;;2.10;93.00;;;2.87;85.72;98163.91;5056432;28;20447;-79
2021/04/07 08:39:18;;;;;;;6.47;1.73;;;2.20;93.00;;;2.96;85.67;98161.31;5051990;28;20463;-79
2021/04/07 08:41:48;;;;;;;2.90;1.63;;;2.30;93.10;;;2.95;84.49;98161.47;5052272;28;20985;-79
2021/04/07 08:44:18;;;;;;;8.93;2.53;;;2.20;92.60;;;2.93;84.15;98163.34;5052381;28;20811;-79
2021/04/07 08:46:50;;;;;;;5.33;2.33;;;2.20;92.60;;;2.94;84.28;98159.81;5053897;28;20464;-79
2021/04/07 08:49:35;;;;;;;5.93;1.93;;;2.30;92.80;;;2.99;84.10;98152.47;5047911;28;20459;-79
2021/04/07 08:52:16;;;;;;;4.53;1.73;;;2.30;92.50;;;3.05;84.06;98151.94;5055295;28;20529;-79
2021/04/07 08:54:47;;;;;;;4.10;2.00;;;2.40;92.40;;;3.07;82.85;98150.03;5060669;28;20566;-79
2021/04/07 08:57:30;;;;;;;9.20;2.27;;;2.40;92.10;;;3.11;82.93;98163.47;5048484;28;20468;-79
2021/04/07 09:00:00;;;;;;;4.60;1.73;;;2.40;92.50;;;3.11;82.11;98172.03;5059461;28;20484;-79
2021/04/07 09:02:29;;;;;;;3.43;2.80;;;2.40;92.10;;;3.20;82.81;98163.47;5061558;28;20450;-79
2021/04/07 09:05:05;;;;;;;6.83;2.00;;;2.60;92.30;;;3.20;82.12;98162.63;5052113;28;20929;-79
2021/04/07 09:07:42;;;;;;;5.50;1.97;;;2.50;92.10;;;3.29;82.14;98174.75;5057760;28;20454;-79
2021/04/07 09:10:17;;;;;;;8.00;1.90;;;2.60;91.80;;;3.32;80.75;98159.78;5051943;28;20433;-79
2021/04/07 09:12:49;;;;;;;3.13;1.70;;;2.70;91.70;;;3.34;81.42;98163.03;5056024;28;20530;-79
2021/04/07 09:15:20;;;;;;;10.73;1.77;;;2.70;91.90;;;3.31;83.11;98178.81;5059014;28;20500;-79
2021/04/07 09:17:52;;;;;;;11.00;1.83;;;2.70;92.40;;;3.24;83.36;98171.75;5058215;28;20452;-79
2021/04/07 09:20:39;;;;;;;5.83;2.07;;;2.60;92.50;;;3.29;85.23;98174.75;5056254;28;20908;-79
2021/04/07 09:23:11;;;;;;;8.93;1.70;;;2.70;93.20;;;3.25;84.66;98174.22;5051249;28;20578;-79
2021/04/07 09:25:46;;;;;;;2.93;1.40;;;2.70;92.70;;;3.20;84.96;98181.53;5052772;28;20480;-79
2021/04/07 09:28:15;;;;;;;3.53;1.60;;;2.50;92.80;;;3.09;86.66;98183.47;5056313;28;20976;-79
2021/04/07 09:30:47;;;;;;;3.40;1.60;;;2.50;93.40;;;3.24;88.31;98187.25;5051264;28;20451;-79
2021/04/07 09:33:18;;;;;;;3.90;2.07;;;2.60;94.10;;;3.16;91.37;98200.84;5051568;28;20444;-79
2021/04/07 09:35:53;;;;;;;8.70;1.73;;;2.50;94.40;;;2.97;94.33;98201.69;5051256;28;21058;-79
2021/04/07 09:38:22;;;;;;;4.03;1.90;;;2.30;95.20;;;2.95;96.05;98213.13;5061769;28;20869;-79
2021/04/07 09:41:01;;;;;;;8.20;1.97;;;2.30;96.00;;;2.88;99.55;98217.97;5057192;28;20481;-79
2021/04/07 09:43:30;;;;;;;3.90;1.60;;;2.20;96.60;;;2.68;100.00;98221.47;5051180;28;20473;-79
2021/04/07 09:45:59;;;;;;;6.07;1.97;;;1.90;98.00;;;2.67;100.00;98222.47;5052011;28;20485;-79
2021/04/07 09:48:52;;;;;;;7.50;1.90;;;1.90;98.80;;;2.61;100.00;98224.72;5048309;28;20444;-79
2021/04/07 09:51:30;;;;;;;3.40;1.60;;;1.80;99.90;;;2.45;100.00;98236.38;5053362;28;20452;-79
2021/04/07 09:54:26;;;;;;;7.13;2.07;;;1.70;99.90;;;2.24;100.00;98238.22;5055135;28;20456;-79
2021/04/07 09:56:57;;;;;;;3.77;1.60;;;1.50;99.90;;;2.30;100.00;98239.44;5040663;28;20843;-79
2021/04/07 09:59:34;;;;;;;5.30;1.43;;;1.60;99.90;;;2.26;100.00;98241.47;5059589;28;20526;-79
2021/04/07 10:02:03;;;;;;;4.53;1.40;;;1.50;99.90;;;2.27;100.00;98237.94;5054624;28;20440;-80
2021/04/07 10:04:33;;;;;;;5.57;1.90;;;1.60;99.90;;;2.21;100.00;98251.38;5050106;28;20445;-79
2021/04/07 10:07:15;;;;;;;5.97;2.17;;;1.40;99.90;;;2.11;100.00;98244.53;5049821;28;20453;-80
2021/04/07 10:09:47;;;;;;;2.50;1.30;;;1.30;99.90;;;2.14;100.00;98258.00;5052747;28;21083;-79
2021/04/07 10:12:16;;;;;;;5.40;2.03;;;1.40;99.90;;;2.02;100.00;98253.84;5054503;28;20444;-79
2021/04/07 10:14:50;;;;;;;5.47;1.90;;;1.20;99.90;;;1.99;100.00;98248.94;5052978;28;20492;-79
2021/04/07 10:17:19;;;;;;;5.43;1.60;;;1.20;99.90;;;2.05;100.00;98252.78;5059021;28;20453;-79
2021/04/07 10:19:48;;;;;;;9.50;2.07;;;1.30;99.90;;;2.07;100.00;98250.91;5054183;28;20449;-79
2021/04/07 10:22:22;;;;;;;4.87;1.63;;;1.30;99.90;;;2.12;100.00;98248.75;5049359;28;20941;-79
2021/04/07 10:24:56;;;;;;;4.50;1.83;;;1.30;99.90;;;2.19;100.00;98255.00;5046122;28;20445;-79
2021/04/07 10:27:26;;;;;;;8.17;2.17;;;1.40;99.90;;;2.28;100.00;98255.06;5048922;28;20813;-79
2021/04/07 10:30:05;;;;;;;2.13;1.97;;;1.60;99.90;;;2.30;100.00;98272.97;5051456;28;20473;-79
2021/04/07 10:32:41;;;;;;;1.40;1.20;;;1.60;99.90;;;2.29;100.00;98268.78;5053982;28;20448;-79
2021/04/07 10:35:11;;;;;;;1.40;1.17;;;1.60;99.90;;;2.25;100.00;98270.81;5058458;28;20483;-79
2021/04/07 10:37:38;;;;;;;10.07;1.83;;;1.60;99.90;;;2.36;100.00;98270.69;5051692;28;20852;-79
2021/04/07 10:40:20;;;;;;;2.80;1.37;;;1.60;99.90;;;2.34;100.00;98274.34;5057309;28;20448;-79
2021/04/07 10:42:48;;;;;;;1.40;1.23;;;1.70;99.90;;;2.24;100.00;98260.59;5050110;28;20885;-79
2021/04/07 10:45:23;;;;;;;5.90;1.43;;;1.70;99.90;;;2.19;100.00;98271.31;5051826;28;20862;-79